createdAt,value
2017-11-17T00:01:50.209Z,51.73
2017-11-17T00:04:17.776Z,63.00
2017-11-17T00:06:45.362Z,50.37
2017-11-17T00:09:13.033Z,56.10
2017-11-17T00:11:40.590Z,52.67
2017-11-17T00:14:08.199Z,55.93
2017-11-17T00:16:35.785Z,53.80
2017-11-17T00:19:03.399Z,49.90
2017-11-17T00:21:30.972Z,58.33
2017-11-17T00:23:58.598Z,39.20
2017-11-17T00:26:26.174Z,61.70
2017-11-17T00:28:53.717Z,54.60
2017-11-17T00:31:21.292Z,56.40
2017-11-17T00:33:48.917Z,51.30
2017-11-17T00:36:16.491Z,47.50
2017-11-17T00:38:44.055Z,50.17
2017-11-17T00:41:11.631Z,53.30
2017-11-17T00:43:39.216Z,45.53
2017-11-17T00:46:06.774Z,54.83
2017-11-17T00:48:34.358Z,54.80
2017-11-17T00:51:01.942Z,48.17
2017-11-17T00:53:29.492Z,49.37
2017-11-17T00:55:57.101Z,53.37
2017-11-17T00:58:24.647Z,44.00
2017-11-17T01:00:52.204Z,60.27
2017-11-17T01:03:19.766Z,47.40
2017-11-17T01:05:47.318Z,52.63
2017-11-17T01:08:14.916Z,51.80
2017-11-17T01:10:42.517Z,55.57
2017-11-17T01:13:10.078Z,45.90
2017-11-17T01:15:37.654Z,45.43
2017-11-17T01:18:05.468Z,48.53
2017-11-17T01:20:33.037Z,42.30
2017-11-17T01:23:00.647Z,45.60
2017-11-17T01:25:28.195Z,37.60
2017-11-17T01:27:55.780Z,42.63
2017-11-17T01:30:23.363Z,45.43
2017-11-17T01:32:50.945Z,36.90
2017-11-17T01:35:18.499Z,44.70
2017-11-17T01:37:46.102Z,41.20
2017-11-17T01:40:13.675Z,45.60
2017-11-17T01:42:41.247Z,51.80
2017-11-17T01:45:09.173Z,46.70
2017-11-17T01:47:36.724Z,44.63
2017-11-17T01:50:04.316Z,47.17
2017-11-17T01:52:31.884Z,43.13
2017-11-17T01:54:59.472Z,35.43
2017-11-17T01:57:27.059Z,41.67
2017-11-17T01:59:54.642Z,41.80
2017-11-17T02:02:22.279Z,44.30
2017-11-17T02:04:49.870Z,42.80
2017-11-17T02:07:17.703Z,43.53
2017-11-17T02:09:45.291Z,43.97
2017-11-17T02:12:12.881Z,46.83
2017-11-17T02:14:40.450Z,43.37
2017-11-17T02:17:08.134Z,42.47
2017-11-17T02:19:35.693Z,45.67
2017-11-17T02:22:03.257Z,42.13
2017-11-17T02:24:30.864Z,40.20
2017-11-17T02:26:58.437Z,37.37
2017-11-17T02:29:26.036Z,37.17
2017-11-17T02:31:53.629Z,36.33
2017-11-17T02:34:21.182Z,36.23
2017-11-17T02:36:48.777Z,38.03
2017-11-17T02:39:16.373Z,43.37
2017-11-17T02:41:43.990Z,41.67
2017-11-17T02:44:11.550Z,38.67
2017-11-17T02:46:39.123Z,38.37
2017-11-17T02:49:06.744Z,36.27
2017-11-17T02:51:34.771Z,39.23
2017-11-17T02:54:02.833Z,36.80
2017-11-17T02:56:30.425Z,29.47
2017-11-17T02:58:57.990Z,40.07
2017-11-17T03:01:25.571Z,34.20
2017-11-17T03:03:53.195Z,34.43
2017-11-17T03:06:20.750Z,37.47
2017-11-17T03:08:48.305Z,31.87
2017-11-17T03:11:16.104Z,39.60
2017-11-17T03:13:43.682Z,36.43
2017-11-17T03:16:11.299Z,32.57
2017-11-17T03:18:38.890Z,27.57
2017-11-17T03:21:06.566Z,36.83
2017-11-17T03:23:34.453Z,36.70
2017-11-17T03:26:02.235Z,41.80
2017-11-17T03:28:29.890Z,34.33
2017-11-17T03:30:57.578Z,32.80
2017-11-17T03:33:25.158Z,34.80
2017-11-17T03:35:52.840Z,39.33
2017-11-17T03:38:20.441Z,37.30
2017-11-17T03:40:48.040Z,31.37
2017-11-17T03:43:15.642Z,32.67
2017-11-17T03:45:43.262Z,40.83
2017-11-17T03:48:10.863Z,36.63
2017-11-17T03:50:38.431Z,35.83
2017-11-17T03:53:06.116Z,42.30
2017-11-17T03:55:33.723Z,41.90
2017-11-17T03:58:01.301Z,39.57
2017-11-17T04:00:28.923Z,51.67
2017-11-17T04:02:56.487Z,44.63
2017-11-17T04:05:24.066Z,40.10
2017-11-17T04:07:51.690Z,44.57
2017-11-17T04:10:19.285Z,47.90
2017-11-17T04:12:46.852Z,46.10
2017-11-17T04:15:14.484Z,41.90
2017-11-17T04:17:42.047Z,47.33
2017-11-17T04:20:09.610Z,48.40
2017-11-17T04:22:37.218Z,51.90
2017-11-17T04:25:04.829Z,39.80
2017-11-17T04:27:32.392Z,37.80
2017-11-17T04:30:00.019Z,43.37
2017-11-17T04:32:27.578Z,52.43
2017-11-17T04:34:55.128Z,45.70
2017-11-17T04:37:23.158Z,47.00
2017-11-17T04:39:50.722Z,41.10
2017-11-17T04:42:18.277Z,47.87
2017-11-17T04:44:45.853Z,39.27
2017-11-17T04:47:13.424Z,45.33
2017-11-17T04:49:41.052Z,38.43
2017-11-17T04:52:08.675Z,50.07
2017-11-17T04:54:36.240Z,42.30
2017-11-17T04:57:03.819Z,48.33
2017-11-17T04:59:31.379Z,39.33
2017-11-17T05:01:58.944Z,38.17
2017-11-17T05:04:26.561Z,42.70
2017-11-17T05:06:54.108Z,41.63
2017-11-17T05:12:13.672Z,47.07
2017-11-17T05:14:41.264Z,49.30
2017-11-17T05:17:08.880Z,37.87
2017-11-17T05:19:36.519Z,50.40
2017-11-17T05:22:04.075Z,44.20
2017-11-17T05:24:35.242Z,46.07
2017-11-17T05:27:02.842Z,43.60
2017-11-17T05:29:30.411Z,38.83
2017-11-17T05:31:57.985Z,51.70
2017-11-17T05:34:25.582Z,51.50
2017-11-17T05:36:53.153Z,46.17
2017-11-17T05:39:20.714Z,46.90
2017-11-17T05:41:48.287Z,43.77
2017-11-17T05:44:15.853Z,47.27
2017-11-17T05:46:43.445Z,45.83
2017-11-17T05:49:11.038Z,40.73
2017-11-17T05:51:38.588Z,37.47
2017-11-17T05:54:06.300Z,38.43
2017-11-17T05:56:33.853Z,46.07
2017-11-17T05:59:03.258Z,38.70
2017-11-17T06:01:30.867Z,45.40
2017-11-17T06:03:58.428Z,44.33
2017-11-17T06:06:25.987Z,42.77
2017-11-17T06:08:53.616Z,37.63
2017-11-17T06:11:21.168Z,41.17
2017-11-17T06:13:48.723Z,47.33
2017-11-17T06:16:16.382Z,46.13
2017-11-17T06:18:43.937Z,48.33
2017-11-17T06:21:11.641Z,50.17
2017-11-17T06:23:39.246Z,47.67
2017-11-17T06:26:06.815Z,50.30
2017-11-17T06:28:34.380Z,45.37
2017-11-17T06:31:01.948Z,41.23
2017-11-17T06:33:29.822Z,44.07
2017-11-17T06:35:57.433Z,41.13
2017-11-17T06:38:25.056Z,40.20
2017-11-17T06:40:52.675Z,42.30
2017-11-17T06:43:25.126Z,38.20
2017-11-17T06:45:52.693Z,32.53
2017-11-17T06:48:20.412Z,38.20
2017-11-17T06:50:48.047Z,31.63
2017-11-17T06:53:15.606Z,28.53
2017-11-17T06:55:43.235Z,31.40
2017-11-17T06:58:13.742Z,25.97
2017-11-17T07:00:41.288Z,35.17
2017-11-17T07:03:09.120Z,26.23
2017-11-17T07:05:36.734Z,26.97
2017-11-17T07:08:04.302Z,31.97
2017-11-17T07:10:31.872Z,25.50
2017-11-17T07:12:59.804Z,21.53
2017-11-17T07:15:27.404Z,28.83
2017-11-17T07:17:54.953Z,23.90
2017-11-17T07:20:22.562Z,31.40
2017-11-17T07:22:50.117Z,23.53
2017-11-17T07:25:17.670Z,29.33
2017-11-17T07:27:45.268Z,33.57
2017-11-17T07:30:12.827Z,24.13
2017-11-17T07:32:40.378Z,26.97
2017-11-17T07:35:09.507Z,24.43
2017-11-17T07:37:37.080Z,31.87
2017-11-17T07:40:04.626Z,26.20
2017-11-17T07:42:32.247Z,30.40
2017-11-17T07:44:59.829Z,26.63
2017-11-17T07:47:27.646Z,28.40
2017-11-17T07:49:55.235Z,24.30
2017-11-17T07:52:22.807Z,24.77
2017-11-17T07:54:50.355Z,28.87
2017-11-17T07:57:18.095Z,27.30
2017-11-17T07:59:45.655Z,23.73
2017-11-17T08:02:13.295Z,24.30
2017-11-17T08:04:40.889Z,25.30
2017-11-17T08:07:08.677Z,20.30
2017-11-17T08:09:36.958Z,22.90
2017-11-17T08:12:04.525Z,22.70
2017-11-17T08:14:32.103Z,26.90
2017-11-17T08:19:58.763Z,29.63
2017-11-17T08:22:26.384Z,27.77
2017-11-17T08:24:54.041Z,47.90
2017-11-17T08:27:21.624Z,29.33
2017-11-17T08:29:49.181Z,27.30
2017-11-17T08:32:16.763Z,22.60
2017-11-17T08:34:44.324Z,23.97
2017-11-17T08:37:12.260Z,31.17
2017-11-17T08:39:39.894Z,20.37
2017-11-17T08:42:07.457Z,27.77
2017-11-17T08:44:35.093Z,22.40
2017-11-17T08:47:02.708Z,22.70
2017-11-17T08:49:30.257Z,22.23
2017-11-17T08:51:57.814Z,21.13
2017-11-17T08:54:25.410Z,18.30
2017-11-17T08:56:52.975Z,20.60
2017-11-17T08:59:20.572Z,17.80
2017-11-17T09:01:48.152Z,15.70
2017-11-17T09:04:15.808Z,21.43
2017-11-17T09:06:43.397Z,16.90
2017-11-17T09:09:11.190Z,17.80
2017-11-17T09:11:38.793Z,20.83
2017-11-17T09:14:06.350Z,20.03
2017-11-17T09:16:34.029Z,16.83
2017-11-17T09:19:01.582Z,21.90
2017-11-17T09:21:29.135Z,23.70
2017-11-17T09:23:56.758Z,18.30
2017-11-17T09:26:25.118Z,20.10
2017-11-17T09:28:52.702Z,18.90
2017-11-17T09:31:20.287Z,17.73
2017-11-17T09:33:47.879Z,19.20
2017-11-17T09:36:15.436Z,20.57
2017-11-17T09:38:43.057Z,22.07
2017-11-17T09:41:10.622Z,18.60
2017-11-17T09:43:38.191Z,26.67
2017-11-17T09:46:05.838Z,23.60
2017-11-17T09:48:33.423Z,24.30
2017-11-17T09:51:01.048Z,20.60
2017-11-17T09:53:28.664Z,21.37
2017-11-17T09:55:56.260Z,18.93
2017-11-17T09:58:24.319Z,21.67
2017-11-17T10:00:51.989Z,22.07
2017-11-17T10:03:19.575Z,27.77
2017-11-17T10:05:47.147Z,28.13
2017-11-17T10:08:14.793Z,25.15
2017-11-17T10:10:42.365Z,19.83
2017-11-17T10:13:09.963Z,22.10
2017-11-17T10:15:37.681Z,22.17
2017-11-17T10:18:05.443Z,25.90
2017-11-17T10:20:33.020Z,25.47
2017-11-17T10:23:00.611Z,34.67
2017-11-17T10:25:28.256Z,22.30
2017-11-17T10:27:55.858Z,23.70
2017-11-17T10:30:23.447Z,25.33
2017-11-17T10:32:51.049Z,23.13
2017-11-17T10:35:18.640Z,25.27
2017-11-17T10:37:46.190Z,23.27
2017-11-17T10:40:13.849Z,23.17
2017-11-17T10:42:41.404Z,24.87
2017-11-17T10:45:09.121Z,21.57
2017-11-17T10:47:36.828Z,22.60
2017-11-17T10:50:04.408Z,25.50
2017-11-17T10:52:32.035Z,23.07
2017-11-17T10:54:59.613Z,20.23
2017-11-17T10:57:27.175Z,23.90
2017-11-17T10:59:57.710Z,34.07
2017-11-17T11:02:25.289Z,29.50
2017-11-17T11:04:55.742Z,28.93
2017-11-17T11:07:23.332Z,29.53
2017-11-17T11:09:52.078Z,25.93
2017-11-17T11:12:19.968Z,29.23
2017-11-17T11:14:47.999Z,29.80
2017-11-17T11:17:18.209Z,30.03
2017-11-17T11:19:45.842Z,28.47
2017-11-17T11:22:15.164Z,33.40
2017-11-17T11:24:43.012Z,31.57
2017-11-17T11:27:10.809Z,30.90
2017-11-17T11:29:38.679Z,33.30
2017-11-17T11:32:06.277Z,36.97
2017-11-17T11:34:33.857Z,35.40
2017-11-17T11:37:01.472Z,36.73
2017-11-17T11:39:29.082Z,39.87
2017-11-17T11:41:56.751Z,47.87
2017-11-17T11:44:26.072Z,34.60
2017-11-17T11:46:53.688Z,35.70
2017-11-17T11:49:21.250Z,36.20
2017-11-17T11:51:49.125Z,32.80
2017-11-17T11:54:16.924Z,40.63
2017-11-17T11:56:44.563Z,40.27
2017-11-17T11:59:12.309Z,40.50
2017-11-17T12:01:39.926Z,35.93
2017-11-17T12:04:07.547Z,44.87
2017-11-17T12:06:35.112Z,40.53
2017-11-17T12:09:02.725Z,48.00
2017-11-17T12:11:30.361Z,49.77
2017-11-17T12:13:57.917Z,48.53
2017-11-17T12:16:25.498Z,40.37
2017-11-17T12:18:53.111Z,43.37
2017-11-17T12:21:20.744Z,47.27
2017-11-17T12:23:48.309Z,48.60
2017-11-17T12:26:15.907Z,42.23
2017-11-17T12:28:43.473Z,52.17
2017-11-17T12:31:11.304Z,49.13
2017-11-17T12:33:38.879Z,51.70
2017-11-17T12:36:06.625Z,54.20
2017-11-17T12:38:34.185Z,55.83
2017-11-17T12:41:01.762Z,52.53
2017-11-17T12:43:29.325Z,47.60
2017-11-17T12:45:56.895Z,50.80
2017-11-17T12:48:24.840Z,51.73
2017-11-17T12:50:52.422Z,48.97
2017-11-17T12:53:19.993Z,53.83
2017-11-17T12:55:47.599Z,55.83
2017-11-17T12:58:15.402Z,51.20
2017-11-17T13:00:44.025Z,51.60
2017-11-17T13:03:11.874Z,47.07
2017-11-17T13:05:39.431Z,62.23
2017-11-17T13:08:07.038Z,51.27
2017-11-17T13:10:35.368Z,62.00
2017-11-17T13:13:02.948Z,59.33
2017-11-17T13:15:30.549Z,51.70
2017-11-17T13:17:58.205Z,52.43
2017-11-17T13:20:25.770Z,53.03
2017-11-17T13:22:53.382Z,49.73
2017-11-17T13:25:21.019Z,52.47
2017-11-17T13:27:48.612Z,52.30
2017-11-17T13:30:16.199Z,47.70
2017-11-17T13:32:43.813Z,60.10
2017-11-17T13:35:11.575Z,54.00
2017-11-17T13:37:39.168Z,72.40
2017-11-17T13:40:06.808Z,57.33
2017-11-17T13:42:35.962Z,59.70
2017-11-17T13:45:04.289Z,62.73
2017-11-17T13:47:33.023Z,58.03
2017-11-17T13:50:00.630Z,68.93
2017-11-17T13:52:28.210Z,53.30
2017-11-17T13:54:55.796Z,55.03
2017-11-17T13:57:23.381Z,59.10
2017-11-17T13:59:50.953Z,58.23
2017-11-17T14:02:18.549Z,66.37
2017-11-17T14:04:46.112Z,56.40
2017-11-17T14:07:13.682Z,54.67
2017-11-17T14:09:41.345Z,51.53
2017-11-17T14:12:09.045Z,55.10
2017-11-17T14:14:36.636Z,59.07
2017-11-17T14:17:04.236Z,66.47
2017-11-17T14:19:31.794Z,49.03
2017-11-17T14:21:59.361Z,56.90
2017-11-17T14:24:26.965Z,65.90
2017-11-17T14:26:54.514Z,48.50
2017-11-17T14:29:22.112Z,58.47
2017-11-17T14:31:49.900Z,56.50
2017-11-17T14:34:17.517Z,57.87
2017-11-17T14:36:45.092Z,53.20
2017-11-17T14:39:12.937Z,54.17
2017-11-17T14:41:40.527Z,54.80
2017-11-17T14:44:08.111Z,50.40
2017-11-17T14:46:35.671Z,55.10
2017-11-17T14:49:03.261Z,64.40
2017-11-17T14:51:31.309Z,61.93
2017-11-17T14:53:58.893Z,61.93
2017-11-17T14:56:26.454Z,60.67
2017-11-17T14:58:54.036Z,57.50
2017-11-17T15:01:21.650Z,62.27
2017-11-17T15:03:49.244Z,61.40
2017-11-17T15:06:16.844Z,67.13
2017-11-17T15:08:44.437Z,75.70
2017-11-17T15:11:13.790Z,60.77
2017-11-17T15:13:42.555Z,59.17
2017-11-17T15:16:10.236Z,64.13
2017-11-17T15:18:37.875Z,59.90
2017-11-17T15:21:08.109Z,49.43
2017-11-17T15:23:36.455Z,48.83
2017-11-17T15:26:04.071Z,56.97
2017-11-17T15:28:31.647Z,49.60
2017-11-17T15:30:59.259Z,55.67
2017-11-17T15:33:27.465Z,50.07
2017-11-17T15:35:55.054Z,49.93
2017-11-17T15:38:22.659Z,54.07
2017-11-17T15:40:50.263Z,44.60
2017-11-17T15:43:19.234Z,40.53
2017-11-17T15:45:46.991Z,47.73
2017-11-17T15:48:14.638Z,43.17
2017-11-17T15:50:42.205Z,48.83
2017-11-17T15:53:09.803Z,45.93
2017-11-17T15:55:39.139Z,40.13
2017-11-17T15:58:06.792Z,39.60
2017-11-17T16:00:34.412Z,37.83
2017-11-17T16:03:03.124Z,48.40
2017-11-17T16:05:31.514Z,42.40
2017-11-17T16:07:59.215Z,45.73
2017-11-17T16:10:26.810Z,45.70
2017-11-17T16:12:54.400Z,39.30
2017-11-17T16:15:22.008Z,41.60
2017-11-17T16:17:49.587Z,39.30
2017-11-17T16:20:17.241Z,42.20
2017-11-17T16:22:44.824Z,31.97
2017-11-17T16:25:13.845Z,40.27
2017-11-17T16:27:41.452Z,41.17
2017-11-17T16:30:09.086Z,40.07
2017-11-17T16:32:36.670Z,40.50
2017-11-17T16:35:04.337Z,34.77
2017-11-17T16:37:31.997Z,36.73
2017-11-17T16:39:59.663Z,39.90
2017-11-17T16:42:27.273Z,35.30
2017-11-17T16:44:54.875Z,37.57
2017-11-17T16:47:22.466Z,33.73
2017-11-17T16:49:50.052Z,34.67
2017-11-17T16:52:17.617Z,31.57
2017-11-17T16:54:45.229Z,34.93
2017-11-17T16:57:12.862Z,27.33
2017-11-17T16:59:40.479Z,31.47
2017-11-17T17:02:08.123Z,29.63
2017-11-17T17:04:35.698Z,40.33
2017-11-17T17:07:03.266Z,33.60
2017-11-17T17:09:30.891Z,34.00
2017-11-17T17:11:58.456Z,28.87
2017-11-17T17:14:26.038Z,26.00
2017-11-17T17:16:53.724Z,26.63
2017-11-17T17:19:21.297Z,32.40
2017-11-17T17:21:48.860Z,25.33
2017-11-17T17:24:16.469Z,24.90
2017-11-17T17:26:44.042Z,24.83
2017-11-17T17:29:12.643Z,28.23
2017-11-17T17:31:40.323Z,28.77
2017-11-17T17:34:08.129Z,24.53
2017-11-17T17:36:35.706Z,25.03
2017-11-17T17:39:03.380Z,24.20
2017-11-17T17:41:30.931Z,25.93
2017-11-17T17:43:58.534Z,27.10
2017-11-17T17:46:26.112Z,23.43
2017-11-17T17:48:53.781Z,26.50
2017-11-17T17:51:21.393Z,24.13
2017-11-17T17:53:49.061Z,25.77
2017-11-17T17:56:16.709Z,23.97
2017-11-17T17:58:44.324Z,27.43
2017-11-17T18:01:12.018Z,21.43
2017-11-17T18:03:39.590Z,25.87
2017-11-17T18:06:07.221Z,22.67
2017-11-17T18:08:34.872Z,24.30
2017-11-17T18:11:02.430Z,26.33
2017-11-17T18:13:30.044Z,24.90
2017-11-17T18:15:57.659Z,24.00
2017-11-17T18:18:25.252Z,30.23
2017-11-17T18:20:52.840Z,23.37
2017-11-17T18:23:20.545Z,26.20
2017-11-17T18:25:49.480Z,22.90
2017-11-17T18:28:17.136Z,29.70
2017-11-17T18:30:44.753Z,23.83
2017-11-17T18:33:12.499Z,29.90
2017-11-17T18:35:40.066Z,26.97
2017-11-17T18:38:07.721Z,29.27
2017-11-17T18:40:35.248Z,24.43
2017-11-17T18:43:02.838Z,24.33
2017-11-17T18:45:30.430Z,34.30
2017-11-17T18:47:57.987Z,23.43
2017-11-17T18:50:25.762Z,27.70
2017-11-17T18:55:25.130Z,27.23
2017-11-17T18:57:52.694Z,27.73
2017-11-17T19:00:20.300Z,32.00
2017-11-17T19:02:47.891Z,31.63
2017-11-17T19:05:15.474Z,28.77
2017-11-17T19:07:43.051Z,31.50
2017-11-17T19:10:10.742Z,33.30
2017-11-17T19:12:38.322Z,30.27
2017-11-17T19:15:06.023Z,26.00
2017-11-17T19:17:33.597Z,33.13
2017-11-17T19:20:01.188Z,31.10
2017-11-17T19:22:28.751Z,33.57
2017-11-17T19:24:56.822Z,42.57
2017-11-17T19:27:24.451Z,37.70
2017-11-17T19:29:53.640Z,38.60
2017-11-17T19:32:21.408Z,31.57
2017-11-17T19:34:48.986Z,35.03
2017-11-17T19:37:16.558Z,38.93
2017-11-17T19:39:44.167Z,44.43
2017-11-17T19:42:11.729Z,35.67
2017-11-17T19:44:39.295Z,40.53
2017-11-17T19:47:06.983Z,43.73
2017-11-17T19:49:34.536Z,47.67
2017-11-17T19:52:02.106Z,34.63
2017-11-17T19:54:29.756Z,37.17
2017-11-17T19:56:57.327Z,30.57
2017-11-17T19:59:26.472Z,38.73
2017-11-17T20:01:54.026Z,33.83
2017-11-17T20:04:21.610Z,33.50
2017-11-17T20:06:49.154Z,33.23
2017-11-17T20:09:16.736Z,37.53
2017-11-17T20:11:44.318Z,38.93
2017-11-17T20:14:11.881Z,34.40
2017-11-17T20:16:39.443Z,39.07
2017-11-17T20:19:07.039Z,31.33
2017-11-17T20:21:34.598Z,38.70
2017-11-17T20:24:02.164Z,36.80
2017-11-17T20:26:29.723Z,32.70
2017-11-17T20:28:57.313Z,34.63
2017-11-17T20:31:24.880Z,34.93
2017-11-17T20:33:52.553Z,38.33
2017-11-17T20:36:21.347Z,31.13
2017-11-17T20:38:48.950Z,36.63
2017-11-17T20:41:16.528Z,32.97
2017-11-17T20:43:44.193Z,29.10
2017-11-17T20:46:11.823Z,29.40
2017-11-17T20:48:39.392Z,30.43
2017-11-17T20:51:07.015Z,34.63
2017-11-17T20:53:34.716Z,29.23
2017-11-17T20:56:02.314Z,30.93
2017-11-17T20:58:29.915Z,24.73
2017-11-17T21:00:57.488Z,25.33
2017-11-17T21:03:25.087Z,27.80
2017-11-17T21:05:52.764Z,29.80
2017-11-17T21:08:21.348Z,25.87
2017-11-17T21:10:49.018Z,34.80
2017-11-17T21:13:16.616Z,27.90
2017-11-17T21:15:44.236Z,27.03
2017-11-17T21:18:11.835Z,31.60
2017-11-17T21:20:39.590Z,36.43
2017-11-17T21:23:07.225Z,31.83
2017-11-17T21:25:34.874Z,26.20
2017-11-17T21:28:02.490Z,26.30
2017-11-17T21:30:30.879Z,31.47
2017-11-17T21:32:58.447Z,26.17
2017-11-17T21:35:26.033Z,26.10
2017-11-17T21:37:53.611Z,23.77
2017-11-17T21:40:21.212Z,22.33
2017-11-17T21:42:48.868Z,24.67
2017-11-17T21:45:16.951Z,29.07
2017-11-17T21:47:44.502Z,28.53
2017-11-17T21:50:12.320Z,33.10
2017-11-17T21:52:39.907Z,30.63
2017-11-17T21:55:07.556Z,27.30
2017-11-17T21:57:35.322Z,34.37
2017-11-17T22:00:03.013Z,32.60
2017-11-17T22:02:30.602Z,31.23
2017-11-17T22:04:58.227Z,37.70
2017-11-17T22:07:25.955Z,30.83
2017-11-17T22:09:53.560Z,31.97
2017-11-17T22:12:21.160Z,28.43
2017-11-17T22:14:48.700Z,24.67
2017-11-17T22:17:16.683Z,27.00
2017-11-17T22:19:44.327Z,30.70
2017-11-17T22:22:11.936Z,22.40
2017-11-17T22:24:39.492Z,27.60
2017-11-17T22:27:07.292Z,29.63
2017-11-17T22:29:34.836Z,27.50
2017-11-17T22:32:02.385Z,32.10
2017-11-17T22:34:29.966Z,28.87
2017-11-17T22:36:57.510Z,32.50
2017-11-17T22:39:25.073Z,29.77
2017-11-17T22:41:52.662Z,43.73
2017-11-17T22:44:20.222Z,33.13
2017-11-17T22:46:47.773Z,41.20
2017-11-17T22:49:15.373Z,33.63
2017-11-17T22:51:42.948Z,33.57
2017-11-17T22:54:10.628Z,30.10
2017-11-17T22:56:38.205Z,33.97
2017-11-17T22:59:05.765Z,30.70
2017-11-17T23:01:34.790Z,36.93
2017-11-17T23:04:02.514Z,34.17
2017-11-17T23:06:30.085Z,33.57
2017-11-17T23:08:57.684Z,36.23
2017-11-17T23:11:25.325Z,35.90
2017-11-17T23:13:52.895Z,32.13
2017-11-17T23:16:20.480Z,34.63
2017-11-17T23:18:48.132Z,31.80
2017-11-17T23:21:15.707Z,38.20
2017-11-17T23:23:43.296Z,36.50
2017-11-17T23:26:10.895Z,34.67
2017-11-17T23:28:38.458Z,35.67
2017-11-17T23:31:06.125Z,34.30
2017-11-17T23:33:33.816Z,33.20
2017-11-17T23:36:01.394Z,35.23
2017-11-17T23:38:28.980Z,31.63
2017-11-17T23:40:56.575Z,31.50
2017-11-17T23:43:24.252Z,39.87
2017-11-17T23:45:51.854Z,33.70
2017-11-17T23:48:19.456Z,36.53
2017-11-17T23:50:47.062Z,43.57
2017-11-17T23:53:14.703Z,39.00
2017-11-17T23:55:42.320Z,37.13
2017-11-17T23:58:10.868Z,31.57
